Time;durP1;ratioP1;P1;durP2;ratioP2;P2;SDS_P1;SDS_P2;PMS_P1;PMS_P2;Temp;Humidity;BMP_temperature;BMP_pressure;BME280_temperature;BME280_humidity;BME280_pressure;Samples;Min_cycle;Max_cycle;Signal;HPM_P1;HPM_P2
2024/01/13 00:01:25;;;;;;;;;;;3.60;99.90;;;;;;5073729;28;19912;-93
2024/01/13 00:03:51;;;;;;;;;;;3.70;99.90;;;;;;5081093;28;19957;-93
2024/01/13 00:06:19;;;;;;;;;;;3.70;99.90;;;;;;5062374;28;19920;-93
2024/01/13 00:08:44;;;;;;;;;;;3.70;99.90;;;;;;5078979;28;19919;-90
2024/01/13 00:11:10;;;;;;;;;;;3.60;99.90;;;;;;5068971;28;19916;-93
2024/01/13 00:13:35;;;;;;;;;;;3.60;99.90;;;;;;5063503;28;20599;-93
2024/01/13 00:16:01;;;;;;;;;;;3.60;99.90;;;;;;5072248;28;19913;-93
2024/01/13 00:18:26;;;;;;;;;;;3.60;99.90;;;;;;5074470;28;20351;-93
2024/01/13 00:20:53;;;;;;;;;;;3.60;99.90;;;;;;5075942;28;19954;-93
2024/01/13 00:23:19;;;;;;;;;;;3.70;99.90;;;;;;5072382;28;19912;-93
2024/01/13 00:25:44;;;;;;;;;;;3.70;99.90;;;;;;5073295;28;19923;-95
2024/01/13 00:28:10;;;;;;;;;;;3.60;99.90;;;;;;5077639;28;19916;-94
2024/01/13 00:30:36;;;;;;;;;;;3.70;99.90;;;;;;5078152;28;19912;-93
2024/01/13 00:33:01;;;;;;;;;;;3.60;99.90;;;;;;5075244;28;19916;-93
2024/01/13 00:35:27;;;;;;;;;;;3.60;99.90;;;;;;5074038;28;20049;-93
2024/01/13 00:37:53;;;;;;;;;;;3.60;99.90;;;;;;5067552;28;20494;-93
2024/01/13 00:40:18;;;;;;;;;;;3.60;99.90;;;;;;5064878;28;19963;-91
2024/01/13 00:42:44;;;;;;;;;;;3.60;99.90;;;;;;5074585;28;20377;-91
2024/01/13 00:45:10;;;;;;;;;;;3.60;99.90;;;;;;5064462;28;19990;-93
2024/01/13 00:47:36;;;;;;;;;;;3.60;99.90;;;;;;5070190;28;20421;-91
2024/01/13 00:50:01;;;;;;;;;;;3.60;99.90;;;;;;5073967;28;19912;-91
2024/01/13 00:52:27;;;;;;;;;;;3.60;99.90;;;;;;5069630;28;19916;-93
2024/01/13 00:54:52;;;;;;;;;;;3.60;99.90;;;;;;5072964;28;19912;-92
2024/01/13 00:57:18;;;;;;;;;;;3.60;99.90;;;;;;5070781;28;19913;-93
2024/01/13 00:59:44;;;;;;;;;;;3.60;99.90;;;;;;5072301;28;19912;-93
2024/01/13 01:02:09;;;;;;;;;;;3.60;99.90;;;;;;5073974;28;19919;-92
2024/01/13 01:04:37;;;;;;;;;;;3.60;99.90;;;;;;5071605;28;19955;-93
2024/01/13 01:07:03;;;;;;;;;;;3.60;99.90;;;;;;5057988;28;20394;-93
2024/01/13 01:09:31;;;;;;;;;;;3.50;99.90;;;;;;5074074;28;19912;-91
2024/01/13 01:11:56;;;;;;;;;;;3.50;99.90;;;;;;5071955;28;19916;-92
2024/01/13 01:14:22;;;;;;;;;;;3.60;99.90;;;;;;5067712;28;19923;-95
2024/01/13 01:16:47;;;;;;;;;;;3.50;99.90;;;;;;5073194;28;19919;-93
2024/01/13 01:19:13;;;;;;;;;;;3.50;99.90;;;;;;5067036;28;20340;-94
2024/01/13 01:21:39;;;;;;;;;;;3.60;99.90;;;;;;5071822;28;19920;-91
2024/01/13 01:24:04;;;;;;;;;;;3.60;99.90;;;;;;5069607;28;19974;-93
2024/01/13 01:26:30;;;;;;;;;;;3.50;99.90;;;;;;5068205;28;19931;-92
2024/01/13 01:28:55;;;;;;;;;;;3.50;99.90;;;;;;5072628;28;19919;-90
2024/01/13 01:31:21;;;;;;;;;;;3.50;99.90;;;;;;5073580;28;19955;-93
2024/01/13 01:33:46;;;;;;;;;;;3.50;99.90;;;;;;5071118;28;19915;-93
2024/01/13 01:36:12;;;;;;;;;;;3.50;99.90;;;;;;5065099;28;20405;-93
2024/01/13 01:38:38;;;;;;;;;;;3.50;99.90;;;;;;5065331;28;19909;-91
2024/01/13 01:41:03;;;;;;;;;;;3.60;99.90;;;;;;5069273;28;19912;-93
2024/01/13 01:43:29;;;;;;;;;;;3.50;99.90;;;;;;5057736;28;19957;-92
2024/01/13 01:45:55;;;;;;;;;;;3.50;99.90;;;;;;5075635;28;20454;-92
2024/01/13 01:48:30;;;;;;;;;;;3.50;99.90;;;;;;5070097;28;19958;-93
2024/01/13 01:50:55;;;;;;;;;;;3.50;99.90;;;;;;5066667;28;19916;-93
2024/01/13 01:53:21;;;;;;;;;;;3.50;99.90;;;;;;5065709;28;20395;-94
2024/01/13 01:55:47;;;;;;;;;;;3.60;99.90;;;;;;5071050;28;20437;-93
2024/01/13 01:58:14;;;;;;;;;;;3.40;99.90;;;;;;5070027;28;20003;-93
2024/01/13 02:00:39;;;;;;;;;;;3.50;99.90;;;;;;5069440;28;19931;-92
2024/01/13 02:03:05;;;;;;;;;;;3.50;99.90;;;;;;5073568;28;19912;-94
2024/01/13 02:05:31;;;;;;;;;;;3.50;99.90;;;;;;5069861;28;20315;-94
2024/01/13 02:07:57;;;;;;;;;;;3.50;99.90;;;;;;5069108;28;20006;-92
2024/01/13 02:10:22;;;;;;;;;;;3.50;99.90;;;;;;5071731;28;20435;-91
2024/01/13 02:12:48;;;;;;;;;;;3.50;99.90;;;;;;5070755;28;19912;-91
2024/01/13 02:15:13;;;;;;;;;;;3.50;99.90;;;;;;5067422;28;20506;-92
2024/01/13 02:17:39;;;;;;;;;;;3.50;99.90;;;;;;5076926;28;19974;-92
2024/01/13 02:20:06;;;;;;;;;;;3.50;99.90;;;;;;5071028;28;19912;-92
2024/01/13 02:22:32;;;;;;;;;;;3.50;99.90;;;;;;5069858;28;19934;-93
2024/01/13 02:24:59;;;;;;;;;;;3.50;99.90;;;;;;5066130;28;20159;-93
2024/01/13 02:27:25;;;;;;;;;;;3.50;99.90;;;;;;5072774;28;19975;-92
2024/01/13 02:29:50;;;;;;;;;;;3.50;99.90;;;;;;5072867;28;19959;-92
2024/01/13 02:32:16;;;;;;;;;;;3.60;99.90;;;;;;5072893;28;20382;-92
2024/01/13 02:34:41;;;;;;;;;;;3.50;99.90;;;;;;5070101;28;20016;-91
2024/01/13 02:37:07;;;;;;;;;;;3.50;99.90;;;;;;5072673;28;19912;-93
2024/01/13 02:39:35;;;;;;;;;;;3.50;99.90;;;;;;5071676;28;19920;-91
2024/01/13 02:42:00;;;;;;;;;;;3.50;99.90;;;;;;5072947;28;20018;-92
2024/01/13 02:44:26;;;;;;;;;;;3.50;99.90;;;;;;5062874;28;20011;-93
2024/01/13 02:46:52;;;;;;;;;;;3.50;99.90;;;;;;5068123;28;20486;-91
2024/01/13 02:49:17;;;;;;;;;;;3.50;99.90;;;;;;5070751;28;19983;-93
2024/01/13 02:51:44;;;;;;;;;;;3.60;99.90;;;;;;5083439;28;19912;-93
2024/01/13 02:54:09;;;;;;;;;;;3.50;99.90;;;;;;5070694;28;19969;-92
2024/01/13 02:56:35;;;;;;;;;;;3.50;99.90;;;;;;5073634;28;20003;-92
2024/01/13 02:59:00;;;;;;;;;;;3.50;99.90;;;;;;5067614;28;19923;-92
2024/01/13 03:01:27;;;;;;;;;;;3.50;99.90;;;;;;5072180;28;19912;-92
2024/01/13 03:03:53;;;;;;;;;;;3.50;99.90;;;;;;5076823;28;19920;-93
2024/01/13 03:06:19;;;;;;;;;;;3.50;99.90;;;;;;5071335;28;19916;-93
2024/01/13 03:08:44;;;;;;;;;;;3.40;99.90;;;;;;5074883;28;19912;-93
2024/01/13 03:11:11;;;;;;;;;;;3.50;99.90;;;;;;5075295;28;20557;-92
2024/01/13 03:13:36;;;;;;;;;;;3.50;99.90;;;;;;5068768;28;20395;-92
2024/01/13 03:16:02;;;;;;;;;;;3.50;99.90;;;;;;5074162;28;19923;-92
2024/01/13 03:18:28;;;;;;;;;;;3.40;99.90;;;;;;5067522;28;19918;-92
2024/01/13 03:20:53;;;;;;;;;;;3.50;99.90;;;;;;5074884;28;19912;-91
2024/01/13 03:23:21;;;;;;;;;;;3.50;99.90;;;;;;5063996;28;20061;-93
2024/01/13 03:25:47;;;;;;;;;;;3.40;99.90;;;;;;5079417;28;20379;-92
2024/01/13 03:28:20;;;;;;;;;;;3.40;99.90;;;;;;5077278;28;20311;-92
2024/01/13 03:30:48;;;;;;;;;;;3.40;99.90;;;;;;5083232;28;19916;-92
2024/01/13 03:33:17;;;;;;;;;;;3.40;99.90;;;;;;5078201;28;19951;-93
2024/01/13 03:35:42;;;;;;;;;;;3.40;99.90;;;;;;5066373;28;19912;-93
2024/01/13 03:38:08;;;;;;;;;;;3.60;99.90;;;;;;5071988;28;19919;-92
2024/01/13 03:40:33;;;;;;;;;;;3.40;99.90;;;;;;5073658;28;20293;-92
2024/01/13 03:42:59;;;;;;;;;;;3.50;99.90;;;;;;5074445;28;20398;-92
2024/01/13 03:45:24;;;;;;;;;;;3.40;99.90;;;;;;5053081;28;20019;-93
2024/01/13 03:47:50;;;;;;;;;;;3.50;99.90;;;;;;5076118;28;19974;-93
2024/01/13 03:50:15;;;;;;;;;;;3.40;99.90;;;;;;5060208;28;20497;-92
2024/01/13 03:52:43;;;;;;;;;;;3.40;99.90;;;;;;5066756;28;20371;-92
2024/01/13 03:55:09;;;;;;;;;;;3.40;99.90;;;;;;5070481;28;19945;-93
2024/01/13 03:57:34;;;;;;;;;;;3.50;99.90;;;;;;5073021;28;19935;-92
2024/01/13 04:00:00;;;;;;;;;;;3.40;99.90;;;;;;5077109;28;19976;-92
2024/01/13 04:02:27;;;;;;;;;;;3.40;99.90;;;;;;5071105;28;19912;-92
2024/01/13 04:04:53;;;;;;;;;;;3.40;99.90;;;;;;5073045;28;19920;-92
2024/01/13 04:07:19;;;;;;;;;;;3.40;99.90;;;;;;5073232;28;19976;-93
2024/01/13 04:09:44;;;;;;;;;;;3.40;99.90;;;;;;5070206;28;19919;-90
2024/01/13 04:12:10;;;;;;;;;;;3.40;99.90;;;;;;5072055;28;20405;-92
2024/01/13 04:14:35;;;;;;;;;;;3.40;99.90;;;;;;5069156;28;19912;-92
2024/01/13 04:17:01;;;;;;;;;;;3.40;99.90;;;;;;5065440;28;20738;-93
2024/01/13 04:19:27;;;;;;;;;;;3.40;99.90;;;;;;5067733;28;20383;-93
2024/01/13 04:21:52;;;;;;;;;;;3.40;99.90;;;;;;5069302;28;19919;-93
2024/01/13 04:24:18;;;;;;;;;;;3.40;99.90;;;;;;5069667;28;19919;-92
2024/01/13 04:26:44;;;;;;;;;;;3.40;99.90;;;;;;5064087;28;20467;-93
2024/01/13 04:29:09;;;;;;;;;;;3.40;99.90;;;;;;5071956;28;19916;-93
2024/01/13 04:31:35;;;;;;;;;;;3.40;99.90;;;;;;5070606;28;20460;-93
2024/01/13 04:34:00;;;;;;;;;;;3.40;99.90;;;;;;5081637;28;20062;-95
2024/01/13 04:36:27;;;;;;;;;;;3.30;99.90;;;;;;5079370;28;19920;-93
2024/01/13 04:38:54;;;;;;;;;;;3.40;99.90;;;;;;5069180;28;19912;-93
2024/01/13 04:41:20;;;;;;;;;;;3.30;99.90;;;;;;5072239;28;19912;-91
2024/01/13 04:43:45;;;;;;;;;;;3.40;99.90;;;;;;5068121;28;19912;-92
2024/01/13 04:46:11;;;;;;;;;;;3.30;99.90;;;;;;5065048;28;19923;-92
2024/01/13 04:48:39;;;;;;;;;;;3.30;99.90;;;;;;5073849;28;20013;-92
2024/01/13 04:51:05;;;;;;;;;;;3.30;99.90;;;;;;5068112;28;19913;-94
2024/01/13 04:53:30;;;;;;;;;;;3.30;99.90;;;;;;5067085;28;19926;-92
2024/01/13 04:55:57;;;;;;;;;;;3.30;99.90;;;;;;5070087;28;19947;-93
2024/01/13 04:58:22;;;;;;;;;;;3.30;99.90;;;;;;5057675;28;19916;-93
2024/01/13 05:00:48;;;;;;;;;;;3.30;99.90;;;;;;5091500;28;19915;-93
2024/01/13 05:03:14;;;;;;;;;;;3.30;99.90;;;;;;5064132;28;19926;-92
2024/01/13 05:05:39;;;;;;;;;;;3.30;99.90;;;;;;5070714;28;19936;-92
2024/01/13 05:08:05;;;;;;;;;;;3.30;99.90;;;;;;5067715;28;19908;-92
2024/01/13 05:10:31;;;;;;;;;;;3.30;99.90;;;;;;5069431;28;19916;-92
2024/01/13 05:12:56;;;;;;;;;;;3.30;99.90;;;;;;5067423;28;19916;-90
2024/01/13 05:15:22;;;;;;;;;;;3.20;99.90;;;;;;5070469;28;19916;-92
2024/01/13 05:17:47;;;;;;;;;;;3.20;99.90;;;;;;5072349;28;19908;-93
2024/01/13 05:20:13;;;;;;;;;;;3.30;99.90;;;;;;5068440;28;19934;-93
2024/01/13 05:22:38;;;;;;;;;;;3.30;99.90;;;;;;5087715;28;20405;-93
2024/01/13 05:25:04;;;;;;;;;;;3.30;99.90;;;;;;5080069;28;20394;-93
2024/01/13 05:27:30;;;;;;;;;;;3.30;99.90;;;;;;5083003;28;19913;-92
2024/01/13 05:29:55;;;;;;;;;;;3.30;99.90;;;;;;5072726;28;19908;-93
2024/01/13 05:32:21;;;;;;;;;;;3.30;99.90;;;;;;5068843;28;19934;-93
2024/01/13 05:34:47;;;;;;;;;;;3.30;99.90;;;;;;5072503;28;19908;-92
2024/01/13 05:37:14;;;;;;;;;;;3.20;99.90;;;;;;5075409;28;20517;-92
2024/01/13 05:39:40;;;;;;;;;;;3.30;99.90;;;;;;5074404;28;19908;-92
2024/01/13 05:42:08;;;;;;;;;;;3.30;99.90;;;;;;5073176;28;19919;-92
2024/01/13 05:44:34;;;;;;;;;;;3.30;99.90;;;;;;5072225;28;20386;-91
2024/01/13 05:46:59;;;;;;;;;;;3.30;99.90;;;;;;5076272;28;19908;-91
2024/01/13 05:49:25;;;;;;;;;;;3.30;99.90;;;;;;5073366;28;19917;-92
2024/01/13 05:51:50;;;;;;;;;;;3.30;99.90;;;;;;5071525;28;20111;-92
2024/01/13 05:54:16;;;;;;;;;;;3.30;99.90;;;;;;5079231;28;19955;-93
2024/01/13 05:56:41;;;;;;;;;;;3.30;99.90;;;;;;5075199;28;19916;-93
2024/01/13 05:59:07;;;;;;;;;;;3.20;99.90;;;;;;5073694;28;19918;-93
2024/01/13 06:01:32;;;;;;;;;;;3.30;99.90;;;;;;5072296;28;19920;-93
2024/01/13 06:03:58;;;;;;;;;;;3.20;99.90;;;;;;5077381;28;20331;-93
2024/01/13 06:06:24;;;;;;;;;;;3.20;99.90;;;;;;5076990;28;19916;-92
2024/01/13 06:08:50;;;;;;;;;;;3.30;99.90;;;;;;5094319;28;19912;-93
2024/01/13 06:11:16;;;;;;;;;;;3.30;99.90;;;;;;5071834;28;20430;-93
2024/01/13 06:13:41;;;;;;;;;;;3.30;99.90;;;;;;5062000;28;19965;-93
2024/01/13 06:16:08;;;;;;;;;;;3.30;99.90;;;;;;5078332;28;19916;-93
2024/01/13 06:18:34;;;;;;;;;;;3.30;99.90;;;;;;5067275;28;20033;-93
2024/01/13 06:21:02;;;;;;;;;;;3.30;99.90;;;;;;5070597;28;19919;-92
2024/01/13 06:23:28;;;;;;;;;;;3.30;99.90;;;;;;5072684;28;20397;-92
2024/01/13 06:25:54;;;;;;;;;;;3.20;99.90;;;;;;5082155;28;20007;-92
2024/01/13 06:28:19;;;;;;;;;;;3.20;99.90;;;;;;5078558;28;19935;-91
2024/01/13 06:30:45;;;;;;;;;;;3.30;99.90;;;;;;5079589;28;19951;-92
2024/01/13 06:33:11;;;;;;;;;;;3.30;99.90;;;;;;5078460;28;19977;-93
2024/01/13 06:35:36;;;;;;;;;;;3.30;99.90;;;;;;5070598;28;19920;-93
2024/01/13 06:38:03;;;;;;;;;;;3.30;99.90;;;;;;5079119;28;19909;-92
2024/01/13 06:40:31;;;;;;;;;;;3.20;99.90;;;;;;5069519;28;20011;-93
2024/01/13 06:42:57;;;;;;;;;;;3.30;99.90;;;;;;5077664;28;19912;-93
2024/01/13 06:45:31;;;;;;;;;;;3.20;99.90;;;;;;5077529;28;19920;-92
2024/01/13 06:47:57;;;;;;;;;;;3.30;99.90;;;;;;5084808;28;19916;-91
2024/01/13 06:50:22;;;;;;;;;;;3.20;99.90;;;;;;5085817;28;19947;-93
2024/01/13 06:52:52;;;;;;;;;;;3.30;99.90;;;;;;5086625;28;19912;-94
2024/01/13 06:55:22;;;;;;;;;;;3.30;99.90;;;;;;5087401;28;19912;-92
2024/01/13 06:57:47;;;;;;;;;;;3.40;99.90;;;;;;5077040;28;19916;-92
2024/01/13 07:00:15;;;;;;;;;;;3.30;99.90;;;;;;5081213;28;19912;-93
2024/01/13 07:02:41;;;;;;;;;;;3.20;99.90;;;;;;5080162;28;19916;-93
2024/01/13 07:05:07;;;;;;;;;;;3.30;99.90;;;;;;5083936;28;19926;-93
2024/01/13 07:07:35;;;;;;;;;;;3.20;99.90;;;;;;5088415;28;19996;-93
2024/01/13 07:10:04;;;;;;;;;;;3.30;99.90;;;;;;5077767;28;19912;-91
2024/01/13 07:12:30;;;;;;;;;;;3.20;99.90;;;;;;5081141;28;19912;-93
2024/01/13 07:14:56;;;;;;;;;;;3.20;99.90;;;;;;5064212;28;20045;-92
2024/01/13 07:17:22;;;;;;;;;;;3.30;99.90;;;;;;5080961;28;19912;-93
2024/01/13 07:19:48;;;;;;;;;;;3.30;99.90;;;;;;5069804;28;19915;-94
2024/01/13 07:22:13;;;;;;;;;;;3.20;99.90;;;;;;5074521;28;19912;-93
2024/01/13 07:24:39;;;;;;;;;;;3.30;99.90;;;;;;5079900;28;19916;-93
2024/01/13 07:27:05;;;;;;;;;;;3.30;99.90;;;;;;5089275;28;19955;-90
2024/01/13 07:29:31;;;;;;;;;;;3.30;99.90;;;;;;5077700;28;19931;-92
2024/01/13 07:31:56;;;;;;;;;;;3.20;99.90;;;;;;5073963;28;20482;-93
2024/01/13 07:34:22;;;;;;;;;;;3.20;99.90;;;;;;5088960;28;19912;-90
2024/01/13 07:36:47;;;;;;;;;;;3.20;99.90;;;;;;5067365;28;19912;-90
2024/01/13 07:39:13;;;;;;;;;;;3.40;99.90;;;;;;5075190;28;19918;-92
2024/01/13 07:41:39;;;;;;;;;;;3.30;99.90;;;;;;5077064;28;19958;-93
2024/01/13 07:44:04;;;;;;;;;;;3.30;99.90;;;;;;5072647;28;20011;-93
2024/01/13 07:46:30;;;;;;;;;;;3.30;99.90;;;;;;5072143;28;19995;-92
2024/01/13 07:48:55;;;;;;;;;;;3.30;99.90;;;;;;5064122;28;19916;-92
2024/01/13 07:51:21;;;;;;;;;;;3.30;99.90;;;;;;5072478;28;20650;-92
2024/01/13 07:53:47;;;;;;;;;;;3.30;99.90;;;;;;5076381;28;19912;-93
2024/01/13 07:56:13;;;;;;;;;;;3.30;99.90;;;;;;5071744;28;19923;-92
2024/01/13 07:58:39;;;;;;;;;;;3.30;99.90;;;;;;5078690;28;19912;-93
2024/01/13 08:01:04;;;;;;;;;;;3.40;99.90;;;;;;5078985;28;19912;-95
2024/01/13 08:03:30;;;;;;;;;;;3.40;99.90;;;;;;5080203;28;20031;-93
2024/01/13 08:05:55;;;;;;;;;;;3.40;99.90;;;;;;5071021;28;19969;-93
2024/01/13 08:08:21;;;;;;;;;;;3.40;99.90;;;;;;5074485;28;19973;-94
2024/01/13 08:10:46;;;;;;;;;;;3.40;99.90;;;;;;5072909;28;19912;-93
2024/01/13 08:13:14;;;;;;;;;;;3.40;99.90;;;;;;5065606;28;20143;-93
2024/01/13 08:15:39;;;;;;;;;;;3.40;99.90;;;;;;5068991;28;20011;-93
2024/01/13 08:18:06;;;;;;;;;;;3.40;99.90;;;;;;5094318;28;19931;-93
2024/01/13 08:20:31;;;;;;;;;;;3.40;99.90;;;;;;5068200;28;19916;-93
2024/01/13 08:22:57;;;;;;;;;;;3.60;99.90;;;;;;5076115;28;19916;-93
2024/01/13 08:25:22;;;;;;;;;;;3.40;99.90;;;;;;5077803;28;20397;-92
2024/01/13 08:27:49;;;;;;;;;;;3.40;99.90;;;;;;5076459;28;19908;-93
2024/01/13 08:30:14;;;;;;;;;;;3.50;99.90;;;;;;5082021;28;20449;-92
2024/01/13 08:32:40;;;;;;;;;;;3.50;99.90;;;;;;5066955;28;19916;-94
2024/01/13 08:35:07;;;;;;;;;;;3.60;99.90;;;;;;5079063;28;19958;-93
2024/01/13 08:37:32;;;;;;;;;;;3.50;99.90;;;;;;5079769;28;19912;-93
2024/01/13 08:39:58;;;;;;;;;;;3.50;99.90;;;;;;5071315;28;19958;-93
2024/01/13 08:42:25;;;;;;;;;;;3.50;99.90;;;;;;5075872;28;19973;-94
2024/01/13 08:44:50;;;;;;;;;;;3.50;99.90;;;;;;5078310;28;20673;-92
2024/01/13 08:47:18;;;;;;;;;;;3.50;99.90;;;;;;5078139;28;20019;-92
2024/01/13 08:49:43;;;;;;;;;;;3.40;99.90;;;;;;5061191;28;19913;-95
2024/01/13 08:52:09;;;;;;;;;;;3.40;99.90;;;;;;5064456;28;19969;-90
2024/01/13 08:54:36;;;;;;;;;;;3.50;99.90;;;;;;5074856;28;19986;-92
2024/01/13 08:57:04;;;;;;;;;;;3.50;99.90;;;;;;5073845;28;19938;-92
2024/01/13 08:59:30;;;;;;;;;;;3.50;99.90;;;;;;5075308;28;19922;-94
2024/01/13 09:01:56;;;;;;;;;;;3.60;99.90;;;;;;5062026;28;19919;-92
2024/01/13 09:04:22;;;;;;;;;;;3.60;99.90;;;;;;5074997;28;19919;-93
2024/01/13 09:06:52;;;;;;;;;;;3.60;99.90;;;;;;5077259;28;19923;-92
2024/01/13 09:09:27;;;;;;;;;;;3.60;99.90;;;;;;5101081;28;19951;-95
2024/01/13 09:12:04;;;;;;;;;;;3.60;99.90;;;;;;5104514;28;19915;-93
2024/01/13 09:14:31;;;;;;;;;;;3.60;99.90;;;;;;5083367;28;20371;-93
2024/01/13 09:17:19;;;;;;;;;;;3.70;99.90;;;;;;5081691;28;19916;-93
2024/01/13 09:19:45;;;;;;;;;;;3.70;99.90;;;;;;5097034;28;19908;-95
2024/01/13 09:22:11;;;;;;;;;;;3.70;99.90;;;;;;5073682;28;19916;-95
2024/01/13 09:24:36;;;;;;;;;;;3.70;99.90;;;;;;5079500;28;19954;-94
2024/01/13 09:27:02;;;;;;;;;;;3.80;99.90;;;;;;5070528;28;20011;-93
2024/01/13 09:29:27;;;;;;;;;;;3.70;99.90;;;;;;5074155;28;19916;-93
2024/01/13 09:31:53;;;;;;;;;;;3.80;99.90;;;;;;5081006;28;19912;-94
2024/01/13 09:34:19;;;;;;;;;;;3.60;99.90;;;;;;5074810;28;19962;-92
2024/01/13 09:36:46;;;;;;;;;;;3.70;99.90;;;;;;5079894;28;19980;-93
2024/01/13 09:39:12;;;;;;;;;;;3.80;99.90;;;;;;5063097;28;20453;-93
2024/01/13 09:41:38;;;;;;;;;;;3.80;99.90;;;;;;5085895;28;19920;-93
2024/01/13 09:44:18;;;;;;;;;;;3.80;99.90;;;;;;5074572;28;19935;-95
2024/01/13 09:46:44;;;;;;;;;;;3.80;99.90;;;;;;5094076;28;19979;-94
2024/01/13 09:49:13;;;;;;;;;;;3.80;99.90;;;;;;5064216;28;20173;-95
2024/01/13 09:51:39;;;;;;;;;;;3.90;99.90;;;;;;5076835;28;20451;-93
2024/01/13 09:54:08;;;;;;;;;;;3.80;99.90;;;;;;5078860;28;19957;-92
2024/01/13 09:56:37;;;;;;;;;;;3.80;99.90;;;;;;5082540;28;19916;-93
2024/01/13 09:59:02;;;;;;;;;;;3.80;99.90;;;;;;5082930;28;19935;-93
2024/01/13 10:01:29;;;;;;;;;;;3.90;99.90;;;;;;5077162;28;19936;-93
2024/01/13 10:03:54;;;;;;;;;;;3.90;99.90;;;;;;5077274;28;19915;-93
2024/01/13 10:06:20;;;;;;;;;;;3.90;99.90;;;;;;5075592;28;19974;-93
2024/01/13 10:08:46;;;;;;;;;;;4.00;99.90;;;;;;5071117;28;19916;-92
2024/01/13 10:11:11;;;;;;;;;;;3.90;99.90;;;;;;5072665;28;20468;-92
2024/01/13 10:13:37;;;;;;;;;;;3.90;99.90;;;;;;5074724;28;20272;-92
2024/01/13 10:16:02;;;;;;;;;;;4.00;99.90;;;;;;5077810;28;19939;-92
2024/01/13 10:18:30;;;;;;;;;;;4.00;99.90;;;;;;5078393;28;20397;-93
2024/01/13 10:20:56;;;;;;;;;;;4.00;99.90;;;;;;5074176;28;20043;-93
2024/01/13 10:23:22;;;;;;;;;;;4.00;99.90;;;;;;5062481;28;20401;-92
2024/01/13 10:25:48;;;;;;;;;;;4.00;99.90;;;;;;5089938;28;19965;-92
2024/01/13 10:28:14;;;;;;;;;;;4.00;99.90;;;;;;5055807;28;20387;-92
2024/01/13 10:30:40;;;;;;;;;;;4.00;99.90;;;;;;5074967;28;19908;-93
2024/01/13 10:33:05;;;;;;;;;;;4.10;99.90;;;;;;5074193;28;19909;-91
2024/01/13 10:35:31;;;;;;;;;;;4.10;99.90;;;;;;5071268;28;19970;-92
2024/01/13 10:37:57;;;;;;;;;;;4.10;99.90;;;;;;5078026;28;19916;-92
2024/01/13 10:40:23;;;;;;;;;;;4.10;99.90;;;;;;5071568;28;20468;-93
2024/01/13 10:42:52;;;;;;;;;;;4.00;99.90;;;;;;5085872;28;19979;-93
2024/01/13 10:45:19;;;;;;;;;;;4.10;99.90;;;;;;5076377;28;19959;-92
2024/01/13 10:47:48;;;;;;;;;;;4.10;99.90;;;;;;5076410;28;19940;-94
2024/01/13 10:50:13;;;;;;;;;;;4.10;99.90;;;;;;5075997;28;19933;-93
2024/01/13 10:52:48;;;;;;;;;;;4.20;99.90;;;;;;5076268;28;19991;-93
2024/01/13 10:55:17;;;;;;;;;;;4.20;99.90;;;;;;5077807;28;20463;-93
2024/01/13 10:57:43;;;;;;;;;;;4.20;99.90;;;;;;5071185;28;19908;-93
2024/01/13 11:00:10;;;;;;;;;;;4.20;99.90;;;;;;5071089;28;20286;-92
2024/01/13 11:02:37;;;;;;;;;;;4.20;99.90;;;;;;5075003;28;19916;-93
2024/01/13 11:05:03;;;;;;;;;;;4.30;99.90;;;;;;5066891;28;19920;-93
2024/01/13 11:07:29;;;;;;;;;;;4.20;99.90;;;;;;5076632;28;19912;-92
2024/01/13 11:09:56;;;;;;;;;;;4.30;99.90;;;;;;5059638;28;19916;-95
2024/01/13 11:12:27;;;;;;;;;;;4.30;99.90;;;;;;5089696;28;19927;-96
2024/01/13 11:14:56;;;;;;;;;;;4.30;99.90;;;;;;5094464;28;20347;-94
2024/01/13 11:17:21;;;;;;;;;;;4.40;99.90;;;;;;5080501;28;19963;-92
2024/01/13 11:19:47;;;;;;;;;;;4.30;99.90;;;;;;5078540;28;19916;-94
2024/01/13 11:22:31;;;;;;;;;;;4.40;99.90;;;;;;5082107;28;20169;-94
2024/01/13 11:24:58;;;;;;;;;;;4.40;99.90;;;;;;5076217;28;19916;-93
2024/01/13 11:27:24;;;;;;;;;;;4.40;99.90;;;;;;5085772;28;19987;-95
2024/01/13 11:29:51;;;;;;;;;;;4.40;99.90;;;;;;5073699;28;19924;-94
2024/01/13 11:32:16;;;;;;;;;;;4.40;99.90;;;;;;5088540;28;20386;-94
2024/01/13 11:34:44;;;;;;;;;;;4.40;99.90;;;;;;5082699;28;19952;-94
2024/01/13 11:37:13;;;;;;;;;;;4.30;99.90;;;;;;5083278;28;19962;-93
2024/01/13 11:39:38;;;;;;;;;;;4.30;99.90;;;;;;5077954;28;19916;-92
2024/01/13 11:42:04;;;;;;;;;;;4.30;99.90;;;;;;5090024;28;19973;-93
2024/01/13 11:44:43;;;;;;;;;;;4.30;99.90;;;;;;5084383;28;19995;-94
2024/01/13 11:47:11;;;;;;;;;;;4.30;99.90;;;;;;5081056;28;20431;-94
2024/01/13 11:49:38;;;;;;;;;;;4.30;99.90;;;;;;5080836;28;20003;-94
2024/01/13 11:52:05;;;;;;;;;;;4.30;99.90;;;;;;5087026;28;19943;-94
2024/01/13 11:54:34;;;;;;;;;;;4.30;99.90;;;;;;5089887;28;19919;-95
2024/01/13 11:57:03;;;;;;;;;;;4.30;99.90;;;;;;5086796;28;19908;-94
2024/01/13 11:59:29;;;;;;;;;;;4.30;99.90;;;;;;5082521;28;19965;-93
2024/01/13 12:01:57;;;;;;;;;;;4.30;99.90;;;;;;5088137;28;19923;-93
2024/01/13 12:04:27;;;;;;;;;;;4.30;99.90;;;;;;5083836;28;19913;-94
2024/01/13 12:06:53;;;;;;;;;;;4.20;99.90;;;;;;5072122;28;19915;-94
2024/01/13 12:09:22;;;;;;;;;;;4.30;99.90;;;;;;5083131;28;20037;-94
2024/01/13 12:11:58;;;;;;;;;;;4.20;99.90;;;;;;5090701;28;19914;-94
2024/01/13 12:14:25;;;;;;;;;;;4.20;99.90;;;;;;5076224;28;19919;-91
2024/01/13 12:16:52;;;;;;;;;;;4.30;99.90;;;;;;5072887;28;20027;-90
2024/01/13 12:19:18;;;;;;;;;;;4.20;99.90;;;;;;5073586;28;19912;-91
2024/01/13 12:21:44;;;;;;;;;;;4.20;99.90;;;;;;5070395;28;19918;-89
2024/01/13 12:24:09;;;;;;;;;;;4.20;99.90;;;;;;5072029;28;20405;-90
2024/01/13 12:26:35;;;;;;;;;;;4.30;99.90;;;;;;5066880;28;19923;-91
2024/01/13 12:29:01;;;;;;;;;;;4.20;99.90;;;;;;5052263;28;20446;-91
2024/01/13 12:31:27;;;;;;;;;;;4.20;99.90;;;;;;5069534;28;19920;-90
2024/01/13 12:33:52;;;;;;;;;;;4.20;99.90;;;;;;5079278;28;19916;-91
2024/01/13 12:36:19;;;;;;;;;;;4.20;99.90;;;;;;5049565;28;20374;-92
2024/01/13 12:38:44;;;;;;;;;;;4.20;99.90;;;;;;5072403;28;19946;-89
2024/01/13 12:41:10;;;;;;;;;;;4.20;99.90;;;;;;5066222;28;20462;-89
2024/01/13 12:43:39;;;;;;;;;;;4.20;99.90;;;;;;5068848;28;19916;-90
2024/01/13 12:46:04;;;;;;;;;;;4.20;99.90;;;;;;5076964;28;19926;-90
2024/01/13 12:48:30;;;;;;;;;;;4.20;99.90;;;;;;5079232;28;20022;-91
2024/01/13 12:50:56;;;;;;;;;;;4.20;99.90;;;;;;5070439;28;19912;-90
2024/01/13 12:53:26;;;;;;;;;;;4.20;99.90;;;;;;5068061;28;19947;-91
2024/01/13 12:55:53;;;;;;;;;;;4.20;99.90;;;;;;5074391;28;19923;-90
2024/01/13 12:58:20;;;;;;;;;;;4.10;99.90;;;;;;5065089;28;20506;-91
2024/01/13 13:00:45;;;;;;;;;;;4.10;99.90;;;;;;5066955;28;19912;-90
2024/01/13 13:03:11;;;;;;;;;;;4.10;99.90;;;;;;5067462;28;19916;-91
2024/01/13 13:05:36;;;;;;;;;;;4.20;99.90;;;;;;5085458;28;20298;-91
2024/01/13 13:08:03;;;;;;;;;;;4.20;99.90;;;;;;5073022;28;19927;-89
2024/01/13 13:10:29;;;;;;;;;;;4.20;99.90;;;;;;5083142;28;19912;-90
2024/01/13 13:12:57;;;;;;;;;;;4.20;99.90;;;;;;5067903;28;19915;-88
2024/01/13 13:15:23;;;;;;;;;;;4.10;99.90;;;;;;5085929;28;20439;-90
2024/01/13 13:17:50;;;;;;;;;;;4.20;99.90;;;;;;5074591;28;20007;-92
2024/01/13 13:20:16;;;;;;;;;;;4.20;99.90;;;;;;5072091;28;19919;-91
2024/01/13 13:22:43;;;;;;;;;;;4.20;99.90;;;;;;5087106;28;19927;-89
2024/01/13 13:25:08;;;;;;;;;;;4.30;99.90;;;;;;5073768;28;19916;-92
2024/01/13 13:27:34;;;;;;;;;;;4.20;99.90;;;;;;5072148;28;19927;-92
2024/01/13 13:30:00;;;;;;;;;;;4.20;99.90;;;;;;5061597;28;19916;-92
2024/01/13 13:32:25;;;;;;;;;;;4.20;99.90;;;;;;5076102;28;19912;-93
2024/01/13 13:34:53;;;;;;;;;;;4.20;99.90;;;;;;5077322;28;19970;-90
2024/01/13 13:37:19;;;;;;;;;;;4.30;99.90;;;;;;5071443;28;19912;-91
2024/01/13 13:39:44;;;;;;;;;;;4.20;99.90;;;;;;5071968;28;19912;-90
2024/01/13 13:42:10;;;;;;;;;;;4.30;99.90;;;;;;5076602;28;20182;-90
2024/01/13 13:44:37;;;;;;;;;;;4.20;99.90;;;;;;5075785;28;19995;-91
2024/01/13 13:47:03;;;;;;;;;;;4.20;99.90;;;;;;5060687;28;19916;-89
2024/01/13 13:49:31;;;;;;;;;;;4.20;99.90;;;;;;5070118;28;19912;-90
2024/01/13 13:51:57;;;;;;;;;;;4.20;99.90;;;;;;5074773;28;19943;-89
2024/01/13 13:54:23;;;;;;;;;;;4.20;99.90;;;;;;5092187;28;19923;-88
2024/01/13 13:56:49;;;;;;;;;;;4.30;99.90;;;;;;5072384;28;19912;-89
2024/01/13 13:59:15;;;;;;;;;;;4.30;99.90;;;;;;5075115;28;19920;-90
2024/01/13 14:01:41;;;;;;;;;;;4.20;99.90;;;;;;5073929;28;19939;-91
2024/01/13 14:04:08;;;;;;;;;;;4.20;99.90;;;;;;5074950;28;19915;-91
2024/01/13 14:06:34;;;;;;;;;;;4.30;99.90;;;;;;5073192;28;20551;-90
2024/01/13 14:09:02;;;;;;;;;;;4.20;99.90;;;;;;5074047;28;19916;-91
2024/01/13 14:11:28;;;;;;;;;;;4.20;99.90;;;;;;5073764;28;20015;-92
2024/01/13 14:13:54;;;;;;;;;;;4.20;99.90;;;;;;5066332;28;20019;-92
2024/01/13 14:16:20;;;;;;;;;;;4.30;99.90;;;;;;5071671;28;20497;-90
2024/01/13 14:18:50;;;;;;;;;;;4.20;99.90;;;;;;5070476;28;19912;-91
2024/01/13 14:21:15;;;;;;;;;;;4.20;99.90;;;;;;5071262;28;19919;-92
2024/01/13 14:23:41;;;;;;;;;;;4.10;99.90;;;;;;5069615;28;19920;-90
2024/01/13 14:26:07;;;;;;;;;;;4.10;99.90;;;;;;5071185;28;19920;-90